sensor_id;sensor_type;location;lat;lon;timestamp;P1;durP1;ratioP1;P2;durP2;ratioP2
25549;SDS011;13444;50.562;7.262;2023-04-05T00:01:13;7.57;;;4.37;;
25549;SDS011;13444;50.562;7.262;2023-04-05T00:03:40;9.20;;;4.13;;
25549;SDS011;13444;50.562;7.262;2023-04-05T00:06:06;7.90;;;4.63;;
25549;SDS011;13444;50.562;7.262;2023-04-05T00:08:32;6.37;;;4.20;;
25549;SDS011;13444;50.562;7.262;2023-04-05T00:10:58;5.97;;;3.80;;
25549;SDS011;13444;50.562;7.262;2023-04-05T00:13:23;6.67;;;4.57;;
25549;SDS011;13444;50.562;7.262;2023-04-05T00:15:49;7.17;;;4.10;;
25549;SDS011;13444;50.562;7.262;2023-04-05T00:18:15;4.30;;;3.23;;
25549;SDS011;13444;50.562;7.262;2023-04-05T00:20:48;5.70;;;4.03;;
25549;SDS011;13444;50.562;7.262;2023-04-05T00:23:15;5.87;;;3.57;;
25549;SDS011;13444;50.562;7.262;2023-04-05T00:25:42;6.93;;;3.80;;
25549;SDS011;13444;50.562;7.262;2023-04-05T00:28:08;7.93;;;4.30;;
25549;SDS011;13444;50.562;7.262;2023-04-05T00:30:34;6.53;;;3.90;;
25549;SDS011;13444;50.562;7.262;2023-04-05T00:33:00;9.40;;;4.30;;
25549;SDS011;13444;50.562;7.262;2023-04-05T00:35:26;5.93;;;3.83;;
25549;SDS011;13444;50.562;7.262;2023-04-05T00:37:52;7.53;;;4.00;;
25549;SDS011;13444;50.562;7.262;2023-04-05T00:40:17;8.83;;;4.10;;
25549;SDS011;13444;50.562;7.262;2023-04-05T00:42:43;6.63;;;3.67;;
25549;SDS011;13444;50.562;7.262;2023-04-05T00:45:08;7.20;;;3.80;;
25549;SDS011;13444;50.562;7.262;2023-04-05T00:47:34;5.70;;;3.87;;
25549;SDS011;13444;50.562;7.262;2023-04-05T00:50:00;6.33;;;3.30;;
25549;SDS011;13444;50.562;7.262;2023-04-05T00:52:29;7.80;;;3.73;;
25549;SDS011;13444;50.562;7.262;2023-04-05T00:54:56;9.47;;;3.80;;
25549;SDS011;13444;50.562;7.262;2023-04-05T00:57:22;6.40;;;4.30;;
25549;SDS011;13444;50.562;7.262;2023-04-05T00:59:49;7.80;;;3.77;;
25549;SDS011;13444;50.562;7.262;2023-04-05T01:02:29;6.50;;;4.03;;
25549;SDS011;13444;50.562;7.262;2023-04-05T01:05:44;8.93;;;4.10;;
25549;SDS011;13444;50.562;7.262;2023-04-05T01:07:49;4.90;;;3.80;;
25549;SDS011;13444;50.562;7.262;2023-04-05T01:10:22;8.70;;;4.97;;
25549;SDS011;13444;50.562;7.262;2023-04-05T01:13:04;6.73;;;3.83;;
25549;SDS011;13444;50.562;7.262;2023-04-05T01:15:30;9.23;;;3.70;;
25549;SDS011;13444;50.562;7.262;2023-04-05T01:17:57;6.67;;;4.17;;
25549;SDS011;13444;50.562;7.262;2023-04-05T01:20:26;6.37;;;3.30;;
25549;SDS011;13444;50.562;7.262;2023-04-05T01:26:03;8.43;;;4.20;;
25549;SDS011;13444;50.562;7.262;2023-04-05T01:29:18;7.47;;;4.03;;
25549;SDS011;13444;50.562;7.262;2023-04-05T01:31:58;7.60;;;4.10;;
25549;SDS011;13444;50.562;7.262;2023-04-05T01:35:17;7.73;;;3.80;;
25549;SDS011;13444;50.562;7.262;2023-04-05T01:38:23;5.77;;;4.17;;
25549;SDS011;13444;50.562;7.262;2023-04-05T01:40:49;7.60;;;3.90;;
25549;SDS011;13444;50.562;7.262;2023-04-05T01:46:22;4.97;;;3.80;;
25549;SDS011;13444;50.562;7.262;2023-04-05T01:48:47;7.77;;;4.20;;
25549;SDS011;13444;50.562;7.262;2023-04-05T01:51:13;7.23;;;4.23;;
25549;SDS011;13444;50.562;7.262;2023-04-05T01:53:39;7.80;;;4.73;;
25549;SDS011;13444;50.562;7.262;2023-04-05T01:56:04;6.07;;;3.97;;
25549;SDS011;13444;50.562;7.262;2023-04-05T01:58:51;7.50;;;4.23;;
25549;SDS011;13444;50.562;7.262;2023-04-05T02:01:16;6.10;;;4.27;;
25549;SDS011;13444;50.562;7.262;2023-04-05T02:03:41;7.90;;;3.90;;
25549;SDS011;13444;50.562;7.262;2023-04-05T02:06:07;6.80;;;4.00;;
25549;SDS011;13444;50.562;7.262;2023-04-05T02:08:32;11.13;;;5.00;;
25549;SDS011;13444;50.562;7.262;2023-04-05T02:10:58;7.00;;;4.17;;
25549;SDS011;13444;50.562;7.262;2023-04-05T02:13:24;9.80;;;4.63;;
25549;SDS011;13444;50.562;7.262;2023-04-05T02:15:50;7.93;;;4.23;;
25549;SDS011;13444;50.562;7.262;2023-04-05T02:18:16;6.40;;;4.43;;
25549;SDS011;13444;50.562;7.262;2023-04-05T02:21:02;8.87;;;4.70;;
25549;SDS011;13444;50.562;7.262;2023-04-05T02:23:32;6.33;;;4.40;;
25549;SDS011;13444;50.562;7.262;2023-04-05T02:26:18;5.63;;;4.10;;
25549;SDS011;13444;50.562;7.262;2023-04-05T02:28:45;6.50;;;4.50;;
25549;SDS011;13444;50.562;7.262;2023-04-05T02:31:32;9.43;;;4.97;;
25549;SDS011;13444;50.562;7.262;2023-04-05T02:33:57;8.93;;;4.73;;
25549;SDS011;13444;50.562;7.262;2023-04-05T02:36:24;7.73;;;4.10;;
25549;SDS011;13444;50.562;7.262;2023-04-05T02:38:55;6.90;;;4.13;;
25549;SDS011;13444;50.562;7.262;2023-04-05T02:41:20;7.53;;;3.93;;
25549;SDS011;13444;50.562;7.262;2023-04-05T02:43:48;6.13;;;4.00;;
25549;SDS011;13444;50.562;7.262;2023-04-05T02:46:14;5.83;;;3.83;;
25549;SDS011;13444;50.562;7.262;2023-04-05T02:49:00;5.53;;;4.23;;
25549;SDS011;13444;50.562;7.262;2023-04-05T02:51:26;8.33;;;4.20;;
25549;SDS011;13444;50.562;7.262;2023-04-05T02:54:12;6.63;;;3.97;;
25549;SDS011;13444;50.562;7.262;2023-04-05T02:56:37;9.63;;;4.00;;
25549;SDS011;13444;50.562;7.262;2023-04-05T02:59:03;8.20;;;4.50;;
25549;SDS011;13444;50.562;7.262;2023-04-05T03:01:29;6.57;;;3.97;;
25549;SDS011;13444;50.562;7.262;2023-04-05T03:03:56;9.13;;;4.57;;
25549;SDS011;13444;50.562;7.262;2023-04-05T03:06:21;6.20;;;4.00;;
25549;SDS011;13444;50.562;7.262;2023-04-05T03:08:47;8.97;;;4.83;;
25549;SDS011;13444;50.562;7.262;2023-04-05T03:11:13;7.37;;;4.57;;
25549;SDS011;13444;50.562;7.262;2023-04-05T03:13:39;7.50;;;4.43;;
25549;SDS011;13444;50.562;7.262;2023-04-05T03:16:05;9.00;;;4.00;;
25549;SDS011;13444;50.562;7.262;2023-04-05T03:18:31;9.10;;;4.83;;
25549;SDS011;13444;50.562;7.262;2023-04-05T03:20:57;9.57;;;5.40;;
25549;SDS011;13444;50.562;7.262;2023-04-05T03:23:23;10.53;;;4.23;;
25549;SDS011;13444;50.562;7.262;2023-04-05T03:25:58;7.50;;;4.70;;
25549;SDS011;13444;50.562;7.262;2023-04-05T03:28:24;6.73;;;4.70;;
25549;SDS011;13444;50.562;7.262;2023-04-05T03:30:50;7.10;;;4.77;;
25549;SDS011;13444;50.562;7.262;2023-04-05T03:33:17;9.27;;;4.80;;
25549;SDS011;13444;50.562;7.262;2023-04-05T03:35:43;7.73;;;4.43;;
25549;SDS011;13444;50.562;7.262;2023-04-05T03:38:08;6.47;;;4.63;;
25549;SDS011;13444;50.562;7.262;2023-04-05T03:40:34;8.77;;;5.80;;
25549;SDS011;13444;50.562;7.262;2023-04-05T03:43:00;15.87;;;8.83;;
25549;SDS011;13444;50.562;7.262;2023-04-05T03:45:25;15.57;;;8.20;;
25549;SDS011;13444;50.562;7.262;2023-04-05T03:47:51;13.13;;;7.50;;
25549;SDS011;13444;50.562;7.262;2023-04-05T03:50:17;12.10;;;6.80;;
25549;SDS011;13444;50.562;7.262;2023-04-05T03:52:43;10.90;;;6.73;;
25549;SDS011;13444;50.562;7.262;2023-04-05T03:55:10;9.13;;;6.27;;
25549;SDS011;13444;50.562;7.262;2023-04-05T03:57:37;10.10;;;6.20;;
25549;SDS011;13444;50.562;7.262;2023-04-05T04:00:03;9.80;;;5.87;;
25549;SDS011;13444;50.562;7.262;2023-04-05T04:02:39;9.17;;;6.13;;
25549;SDS011;13444;50.562;7.262;2023-04-05T04:05:14;11.97;;;5.43;;
25549;SDS011;13444;50.562;7.262;2023-04-05T04:07:41;11.43;;;6.03;;
25549;SDS011;13444;50.562;7.262;2023-04-05T04:10:07;8.87;;;4.63;;
25549;SDS011;13444;50.562;7.262;2023-04-05T04:12:34;9.67;;;4.93;;
25549;SDS011;13444;50.562;7.262;2023-04-05T04:15:00;9.33;;;4.37;;
25549;SDS011;13444;50.562;7.262;2023-04-05T04:17:26;8.43;;;4.63;;
25549;SDS011;13444;50.562;7.262;2023-04-05T04:19:56;6.67;;;4.20;;
25549;SDS011;13444;50.562;7.262;2023-04-05T04:22:23;8.43;;;5.10;;
25549;SDS011;13444;50.562;7.262;2023-04-05T04:24:57;8.93;;;4.63;;
25549;SDS011;13444;50.562;7.262;2023-04-05T04:27:28;7.57;;;4.37;;
25549;SDS011;13444;50.562;7.262;2023-04-05T04:30:00;10.03;;;5.07;;
25549;SDS011;13444;50.562;7.262;2023-04-05T04:32:26;9.40;;;4.23;;
25549;SDS011;13444;50.562;7.262;2023-04-05T04:35:13;7.00;;;4.37;;
25549;SDS011;13444;50.562;7.262;2023-04-05T04:37:50;7.93;;;4.80;;
25549;SDS011;13444;50.562;7.262;2023-04-05T04:40:33;8.47;;;4.97;;
25549;SDS011;13444;50.562;7.262;2023-04-05T04:43:07;7.60;;;4.90;;
25549;SDS011;13444;50.562;7.262;2023-04-05T04:45:50;10.17;;;4.80;;
25549;SDS011;13444;50.562;7.262;2023-04-05T04:48:18;7.17;;;4.83;;
25549;SDS011;13444;50.562;7.262;2023-04-05T04:50:44;9.30;;;4.40;;
25549;SDS011;13444;50.562;7.262;2023-04-05T04:53:10;8.03;;;5.43;;
25549;SDS011;13444;50.562;7.262;2023-04-05T04:55:38;9.20;;;4.83;;
25549;SDS011;13444;50.562;7.262;2023-04-05T04:58:06;10.30;;;5.27;;
25549;SDS011;13444;50.562;7.262;2023-04-05T05:00:39;7.47;;;4.50;;
25549;SDS011;13444;50.562;7.262;2023-04-05T05:03:07;8.27;;;4.47;;
25549;SDS011;13444;50.562;7.262;2023-04-05T05:05:35;9.47;;;4.83;;
25549;SDS011;13444;50.562;7.262;2023-04-05T05:08:06;9.30;;;5.47;;
25549;SDS011;13444;50.562;7.262;2023-04-05T05:10:31;9.43;;;5.63;;
25549;SDS011;13444;50.562;7.262;2023-04-05T05:12:57;9.97;;;5.27;;
25549;SDS011;13444;50.562;7.262;2023-04-05T05:15:23;10.83;;;5.27;;
25549;SDS011;13444;50.562;7.262;2023-04-05T05:17:48;13.13;;;5.87;;
25549;SDS011;13444;50.562;7.262;2023-04-05T05:20:17;11.97;;;6.00;;
25549;SDS011;13444;50.562;7.262;2023-04-05T05:22:42;9.13;;;5.93;;
25549;SDS011;13444;50.562;7.262;2023-04-05T05:25:08;11.73;;;5.33;;
25549;SDS011;13444;50.562;7.262;2023-04-05T05:27:36;16.20;;;5.63;;
25549;SDS011;13444;50.562;7.262;2023-04-05T05:30:02;11.77;;;6.60;;
25549;SDS011;13444;50.562;7.262;2023-04-05T05:32:30;12.30;;;5.80;;
25549;SDS011;13444;50.562;7.262;2023-04-05T05:34:56;17.23;;;7.80;;
25549;SDS011;13444;50.562;7.262;2023-04-05T05:37:28;16.07;;;7.87;;
25549;SDS011;13444;50.562;7.262;2023-04-05T05:39:55;17.30;;;8.00;;
25549;SDS011;13444;50.562;7.262;2023-04-05T05:42:21;19.47;;;8.43;;
25549;SDS011;13444;50.562;7.262;2023-04-05T05:44:47;20.13;;;9.00;;
25549;SDS011;13444;50.562;7.262;2023-04-05T05:47:12;19.47;;;8.23;;
25549;SDS011;13444;50.562;7.262;2023-04-05T05:49:38;38.17;;;9.30;;
25549;SDS011;13444;50.562;7.262;2023-04-05T05:52:03;22.17;;;8.13;;
25549;SDS011;13444;50.562;7.262;2023-04-05T05:54:29;19.77;;;7.03;;
25549;SDS011;13444;50.562;7.262;2023-04-05T05:56:55;21.37;;;6.90;;
25549;SDS011;13444;50.562;7.262;2023-04-05T05:59:21;14.23;;;6.60;;
25549;SDS011;13444;50.562;7.262;2023-04-05T06:01:47;20.57;;;6.60;;
25549;SDS011;13444;50.562;7.262;2023-04-05T06:04:12;22.80;;;7.87;;
25549;SDS011;13444;50.562;7.262;2023-04-05T06:06:38;12.53;;;7.73;;
25549;SDS011;13444;50.562;7.262;2023-04-05T06:09:06;25.47;;;12.30;;
25549;SDS011;13444;50.562;7.262;2023-04-05T06:11:32;24.67;;;10.80;;
25549;SDS011;13444;50.562;7.262;2023-04-05T06:13:58;17.97;;;8.90;;
25549;SDS011;13444;50.562;7.262;2023-04-05T06:16:23;16.10;;;9.97;;
25549;SDS011;13444;50.562;7.262;2023-04-05T06:18:49;18.00;;;9.93;;
25549;SDS011;13444;50.562;7.262;2023-04-05T06:21:15;15.60;;;9.10;;
25549;SDS011;13444;50.562;7.262;2023-04-05T06:23:41;13.50;;;7.33;;
25549;SDS011;13444;50.562;7.262;2023-04-05T06:26:07;13.23;;;7.30;;
25549;SDS011;13444;50.562;7.262;2023-04-05T06:28:33;12.70;;;7.10;;
25549;SDS011;13444;50.562;7.262;2023-04-05T06:30:59;11.77;;;6.80;;
25549;SDS011;13444;50.562;7.262;2023-04-05T06:33:25;12.33;;;7.40;;
25549;SDS011;13444;50.562;7.262;2023-04-05T06:35:50;9.73;;;6.47;;
25549;SDS011;13444;50.562;7.262;2023-04-05T06:38:24;12.87;;;7.17;;
25549;SDS011;13444;50.562;7.262;2023-04-05T06:43:25;11.83;;;6.57;;
25549;SDS011;13444;50.562;7.262;2023-04-05T06:45:50;11.20;;;6.50;;
25549;SDS011;13444;50.562;7.262;2023-04-05T06:48:16;10.50;;;6.43;;
25549;SDS011;13444;50.562;7.262;2023-04-05T06:50:45;9.13;;;5.90;;
25549;SDS011;13444;50.562;7.262;2023-04-05T06:53:31;11.40;;;6.50;;
25549;SDS011;13444;50.562;7.262;2023-04-05T06:55:57;9.80;;;6.73;;
25549;SDS011;13444;50.562;7.262;2023-04-05T06:58:35;9.03;;;6.63;;
25549;SDS011;13444;50.562;7.262;2023-04-05T07:01:02;9.50;;;7.17;;
25549;SDS011;13444;50.562;7.262;2023-04-05T07:03:28;12.63;;;7.10;;
25549;SDS011;13444;50.562;7.262;2023-04-05T07:05:54;15.70;;;6.80;;
25549;SDS011;13444;50.562;7.262;2023-04-05T07:08:23;13.20;;;7.30;;
25549;SDS011;13444;50.562;7.262;2023-04-05T07:11:02;10.50;;;6.83;;
25549;SDS011;13444;50.562;7.262;2023-04-05T07:13:28;11.07;;;6.37;;
25549;SDS011;13444;50.562;7.262;2023-04-05T07:16:00;8.87;;;6.43;;
25549;SDS011;13444;50.562;7.262;2023-04-05T07:18:27;12.50;;;6.73;;
25549;SDS011;13444;50.562;7.262;2023-04-05T07:20:54;9.20;;;6.03;;
25549;SDS011;13444;50.562;7.262;2023-04-05T07:23:24;12.07;;;6.67;;
25549;SDS011;13444;50.562;7.262;2023-04-05T07:25:50;10.50;;;5.77;;
25549;SDS011;13444;50.562;7.262;2023-04-05T07:28:16;10.00;;;5.90;;
25549;SDS011;13444;50.562;7.262;2023-04-05T07:30:44;7.43;;;5.13;;
25549;SDS011;13444;50.562;7.262;2023-04-05T07:33:19;11.60;;;6.87;;
25549;SDS011;13444;50.562;7.262;2023-04-05T07:36:05;10.53;;;6.00;;
25549;SDS011;13444;50.562;7.262;2023-04-05T07:38:31;11.47;;;5.03;;
25549;SDS011;13444;50.562;7.262;2023-04-05T07:40:57;9.53;;;4.97;;
25549;SDS011;13444;50.562;7.262;2023-04-05T07:43:28;7.17;;;4.63;;
25549;SDS011;13444;50.562;7.262;2023-04-05T07:45:59;8.83;;;4.67;;
25549;SDS011;13444;50.562;7.262;2023-04-05T07:48:28;6.30;;;4.23;;
25549;SDS011;13444;50.562;7.262;2023-04-05T07:50:54;7.67;;;4.50;;
25549;SDS011;13444;50.562;7.262;2023-04-05T07:53:20;6.87;;;4.13;;
25549;SDS011;13444;50.562;7.262;2023-04-05T07:55:46;10.10;;;4.77;;
25549;SDS011;13444;50.562;7.262;2023-04-05T07:58:12;6.37;;;3.90;;
25549;SDS011;13444;50.562;7.262;2023-04-05T08:00:46;8.20;;;4.60;;
25549;SDS011;13444;50.562;7.262;2023-04-05T08:03:12;7.27;;;4.00;;
25549;SDS011;13444;50.562;7.262;2023-04-05T08:05:37;9.47;;;3.93;;
25549;SDS011;13444;50.562;7.262;2023-04-05T08:08:03;8.87;;;3.83;;
25549;SDS011;13444;50.562;7.262;2023-04-05T08:10:28;7.87;;;4.20;;
25549;SDS011;13444;50.562;7.262;2023-04-05T08:12:54;8.40;;;4.20;;
25549;SDS011;13444;50.562;7.262;2023-04-05T08:15:19;7.73;;;3.93;;
25549;SDS011;13444;50.562;7.262;2023-04-05T08:17:45;6.93;;;3.73;;
25549;SDS011;13444;50.562;7.262;2023-04-05T08:20:11;7.23;;;3.40;;
25549;SDS011;13444;50.562;7.262;2023-04-05T08:22:36;5.63;;;3.60;;
25549;SDS011;13444;50.562;7.262;2023-04-05T08:25:02;6.90;;;3.70;;
25549;SDS011;13444;50.562;7.262;2023-04-05T08:27:28;5.73;;;3.63;;
25549;SDS011;13444;50.562;7.262;2023-04-05T08:29:53;10.37;;;4.07;;
25549;SDS011;13444;50.562;7.262;2023-04-05T08:32:19;6.40;;;2.90;;
25549;SDS011;13444;50.562;7.262;2023-04-05T08:34:44;6.73;;;3.17;;
25549;SDS011;13444;50.562;7.262;2023-04-05T08:37:10;6.70;;;3.17;;
25549;SDS011;13444;50.562;7.262;2023-04-05T08:39:35;4.57;;;2.93;;
25549;SDS011;13444;50.562;7.262;2023-04-05T08:42:10;5.23;;;3.70;;
25549;SDS011;13444;50.562;7.262;2023-04-05T08:44:40;6.27;;;3.30;;
25549;SDS011;13444;50.562;7.262;2023-04-05T08:47:09;5.80;;;3.60;;
25549;SDS011;13444;50.562;7.262;2023-04-05T08:49:42;5.47;;;3.23;;
25549;SDS011;13444;50.562;7.262;2023-04-05T08:52:08;7.40;;;3.53;;
25549;SDS011;13444;50.562;7.262;2023-04-05T08:54:34;6.30;;;3.53;;
25549;SDS011;13444;50.562;7.262;2023-04-05T08:57:00;6.93;;;3.63;;
25549;SDS011;13444;50.562;7.262;2023-04-05T08:59:29;6.37;;;4.00;;
25549;SDS011;13444;50.562;7.262;2023-04-05T09:01:59;6.77;;;3.50;;
25549;SDS011;13444;50.562;7.262;2023-04-05T09:04:26;7.20;;;3.60;;
25549;SDS011;13444;50.562;7.262;2023-04-05T09:06:56;7.90;;;3.47;;
25549;SDS011;13444;50.562;7.262;2023-04-05T09:09:23;7.72;;;3.15;;
25549;SDS011;13444;50.562;7.262;2023-04-05T09:11:49;9.57;;;3.72;;
25549;SDS011;13444;50.562;7.262;2023-04-05T09:14:15;9.02;;;3.90;;
25549;SDS011;13444;50.562;7.262;2023-04-05T09:16:41;5.38;;;3.25;;
25549;SDS011;13444;50.562;7.262;2023-04-05T09:19:07;4.60;;;2.70;;
25549;SDS011;13444;50.562;7.262;2023-04-05T09:24:31;6.22;;;3.03;;
25549;SDS011;13444;50.562;7.262;2023-04-05T09:27:05;9.90;;;3.45;;
25549;SDS011;13444;50.562;7.262;2023-04-05T09:29:35;6.20;;;3.08;;
25549;SDS011;13444;50.562;7.262;2023-04-05T09:32:02;5.50;;;2.72;;
25549;SDS011;13444;50.562;7.262;2023-04-05T09:34:30;5.57;;;2.70;;
25549;SDS011;13444;50.562;7.262;2023-04-05T09:36:57;5.63;;;3.05;;
25549;SDS011;13444;50.562;7.262;2023-04-05T09:39:30;5.45;;;2.80;;
25549;SDS011;13444;50.562;7.262;2023-04-05T09:42:07;7.32;;;2.85;;
25549;SDS011;13444;50.562;7.262;2023-04-05T09:47:21;4.80;;;2.60;;
25549;SDS011;13444;50.562;7.262;2023-04-05T09:49:49;5.38;;;2.60;;
25549;SDS011;13444;50.562;7.262;2023-04-05T09:54:43;5.03;;;3.00;;
25549;SDS011;13444;50.562;7.262;2023-04-05T09:57:09;5.47;;;2.80;;
25549;SDS011;13444;50.562;7.262;2023-04-05T09:59:34;6.10;;;2.72;;
25549;SDS011;13444;50.562;7.262;2023-04-05T10:02:00;4.90;;;3.10;;
25549;SDS011;13444;50.562;7.262;2023-04-05T10:04:28;6.18;;;2.83;;
25549;SDS011;13444;50.562;7.262;2023-04-05T10:07:07;6.68;;;3.10;;
25549;SDS011;13444;50.562;7.262;2023-04-05T10:09:34;4.18;;;2.85;;
25549;SDS011;13444;50.562;7.262;2023-04-05T10:12:00;4.93;;;2.90;;
25549;SDS011;13444;50.562;7.262;2023-04-05T10:14:27;7.75;;;3.20;;
25549;SDS011;13444;50.562;7.262;2023-04-05T10:17:07;4.35;;;2.80;;
25549;SDS011;13444;50.562;7.262;2023-04-05T10:20:12;5.90;;;3.00;;
25549;SDS011;13444;50.562;7.262;2023-04-05T10:22:41;5.55;;;3.40;;
25549;SDS011;13444;50.562;7.262;2023-04-05T10:28:34;8.48;;;3.40;;
25549;SDS011;13444;50.562;7.262;2023-04-05T10:34:27;6.53;;;3.20;;
25549;SDS011;13444;50.562;7.262;2023-04-05T10:37:02;7.03;;;3.40;;
25549;SDS011;13444;50.562;7.262;2023-04-05T10:39:36;5.63;;;3.70;;
25549;SDS011;13444;50.562;7.262;2023-04-05T10:42:08;4.35;;;3.20;;
25549;SDS011;13444;50.562;7.262;2023-04-05T10:44:39;6.72;;;3.10;;
25549;SDS011;13444;50.562;7.262;2023-04-05T10:47:10;8.52;;;3.55;;
25549;SDS011;13444;50.562;7.262;2023-04-05T10:49:41;4.53;;;3.28;;
25549;SDS011;13444;50.562;7.262;2023-04-05T10:52:09;6.70;;;3.25;;
25549;SDS011;13444;50.562;7.262;2023-04-05T10:54:35;4.28;;;3.17;;
25549;SDS011;13444;50.562;7.262;2023-04-05T10:57:04;6.50;;;3.78;;
25549;SDS011;13444;50.562;7.262;2023-04-05T10:59:32;5.45;;;3.28;;
25549;SDS011;13444;50.562;7.262;2023-04-05T11:01:59;6.50;;;3.40;;
25549;SDS011;13444;50.562;7.262;2023-04-05T11:04:26;6.18;;;3.35;;
25549;SDS011;13444;50.562;7.262;2023-04-05T11:07:10;6.40;;;2.95;;
25549;SDS011;13444;50.562;7.262;2023-04-05T11:09:37;6.35;;;3.20;;
25549;SDS011;13444;50.562;7.262;2023-04-05T11:12:14;6.15;;;3.00;;
25549;SDS011;13444;50.562;7.262;2023-04-05T11:14:40;6.18;;;3.45;;
25549;SDS011;13444;50.562;7.262;2023-04-05T11:17:22;5.15;;;2.60;;
25549;SDS011;13444;50.562;7.262;2023-04-05T11:19:58;8.15;;;3.33;;
25549;SDS011;13444;50.562;7.262;2023-04-05T11:22:28;7.40;;;2.78;;
25549;SDS011;13444;50.562;7.262;2023-04-05T11:24:58;7.30;;;3.55;;
25549;SDS011;13444;50.562;7.262;2023-04-05T11:27:30;4.93;;;2.95;;
25549;SDS011;13444;50.562;7.262;2023-04-05T11:29:57;5.03;;;3.15;;
25549;SDS011;13444;50.562;7.262;2023-04-05T11:32:36;5.28;;;2.97;;
25549;SDS011;13444;50.562;7.262;2023-04-05T11:35:16;7.05;;;3.10;;
25549;SDS011;13444;50.562;7.262;2023-04-05T11:40:23;4.50;;;2.55;;
25549;SDS011;13444;50.562;7.262;2023-04-05T11:42:58;4.03;;;2.83;;
25549;SDS011;13444;50.562;7.262;2023-04-05T11:45:25;3.88;;;2.85;;
25549;SDS011;13444;50.562;7.262;2023-04-05T11:47:51;3.80;;;2.80;;
25549;SDS011;13444;50.562;7.262;2023-04-05T11:50:17;3.40;;;2.83;;
25549;SDS011;13444;50.562;7.262;2023-04-05T11:52:42;4.57;;;2.92;;
25549;SDS011;13444;50.562;7.262;2023-04-05T11:55:08;4.57;;;2.65;;
25549;SDS011;13444;50.562;7.262;2023-04-05T11:57:35;4.93;;;2.60;;
25549;SDS011;13444;50.562;7.262;2023-04-05T12:00:02;6.13;;;2.83;;
25549;SDS011;13444;50.562;7.262;2023-04-05T12:02:32;5.55;;;3.33;;
25549;SDS011;13444;50.562;7.262;2023-04-05T12:04:58;4.57;;;3.13;;
25549;SDS011;13444;50.562;7.262;2023-04-05T12:07:25;4.78;;;2.95;;
25549;SDS011;13444;50.562;7.262;2023-04-05T12:10:00;3.58;;;2.58;;
25549;SDS011;13444;50.562;7.262;2023-04-05T12:12:31;4.72;;;2.70;;
25549;SDS011;13444;50.562;7.262;2023-04-05T12:15:02;5.13;;;3.00;;
25549;SDS011;13444;50.562;7.262;2023-04-05T12:17:36;4.00;;;2.70;;
25549;SDS011;13444;50.562;7.262;2023-04-05T12:20:15;3.90;;;2.72;;
25549;SDS011;13444;50.562;7.262;2023-04-05T12:22:43;6.03;;;2.50;;
25549;SDS011;13444;50.562;7.262;2023-04-05T12:25:12;5.30;;;3.10;;
25549;SDS011;13444;50.562;7.262;2023-04-05T12:27:39;4.57;;;3.05;;
25549;SDS011;13444;50.562;7.262;2023-04-05T12:30:15;7.97;;;3.10;;
25549;SDS011;13444;50.562;7.262;2023-04-05T12:32:46;4.90;;;2.95;;
25549;SDS011;13444;50.562;7.262;2023-04-05T12:35:16;3.92;;;2.30;;
25549;SDS011;13444;50.562;7.262;2023-04-05T12:37:51;3.63;;;2.67;;
25549;SDS011;13444;50.562;7.262;2023-04-05T12:40:20;4.28;;;2.63;;
25549;SDS011;13444;50.562;7.262;2023-04-05T12:42:47;5.10;;;2.70;;
25549;SDS011;13444;50.562;7.262;2023-04-05T12:45:13;5.82;;;3.25;;
25549;SDS011;13444;50.562;7.262;2023-04-05T12:47:49;4.40;;;2.83;;
25549;SDS011;13444;50.562;7.262;2023-04-05T12:50:26;3.83;;;2.83;;
25549;SDS011;13444;50.562;7.262;2023-04-05T12:52:57;4.50;;;2.75;;
25549;SDS011;13444;50.562;7.262;2023-04-05T12:55:24;6.57;;;3.33;;
25549;SDS011;13444;50.562;7.262;2023-04-05T12:57:51;4.63;;;2.97;;
25549;SDS011;13444;50.562;7.262;2023-04-05T13:00:18;7.03;;;2.97;;
25549;SDS011;13444;50.562;7.262;2023-04-05T13:02:48;5.43;;;3.05;;
25549;SDS011;13444;50.562;7.262;2023-04-05T13:05:16;7.85;;;3.08;;
25549;SDS011;13444;50.562;7.262;2023-04-05T13:07:42;7.30;;;3.17;;
25549;SDS011;13444;50.562;7.262;2023-04-05T13:10:08;7.85;;;2.95;;
25549;SDS011;13444;50.562;7.262;2023-04-05T13:12:34;4.40;;;2.65;;
25549;SDS011;13444;50.562;7.262;2023-04-05T13:14:59;3.47;;;2.70;;
25549;SDS011;13444;50.562;7.262;2023-04-05T13:17:25;4.57;;;2.65;;
25549;SDS011;13444;50.562;7.262;2023-04-05T13:19:50;3.97;;;2.25;;
25549;SDS011;13444;50.562;7.262;2023-04-05T13:22:16;3.15;;;2.70;;
25549;SDS011;13444;50.562;7.262;2023-04-05T13:24:41;4.47;;;3.17;;
25549;SDS011;13444;50.562;7.262;2023-04-05T13:27:07;4.13;;;3.15;;
25549;SDS011;13444;50.562;7.262;2023-04-05T13:29:32;4.65;;;2.88;;
25549;SDS011;13444;50.562;7.262;2023-04-05T13:31:57;5.90;;;3.15;;
25549;SDS011;13444;50.562;7.262;2023-04-05T13:34:23;5.13;;;2.80;;
25549;SDS011;13444;50.562;7.262;2023-04-05T13:36:48;4.55;;;2.80;;
25549;SDS011;13444;50.562;7.262;2023-04-05T13:39:14;4.82;;;3.00;;
25549;SDS011;13444;50.562;7.262;2023-04-05T13:41:39;5.97;;;3.45;;
25549;SDS011;13444;50.562;7.262;2023-04-05T13:44:05;4.25;;;2.85;;
25549;SDS011;13444;50.562;7.262;2023-04-05T13:46:30;4.15;;;2.70;;
25549;SDS011;13444;50.562;7.262;2023-04-05T13:48:56;4.88;;;3.50;;
25549;SDS011;13444;50.562;7.262;2023-04-05T13:51:22;4.60;;;3.05;;
25549;SDS011;13444;50.562;7.262;2023-04-05T13:53:47;3.65;;;3.05;;
25549;SDS011;13444;50.562;7.262;2023-04-05T13:56:12;6.38;;;3.30;;
25549;SDS011;13444;50.562;7.262;2023-04-05T13:58:38;5.55;;;3.13;;
25549;SDS011;13444;50.562;7.262;2023-04-05T14:01:03;4.55;;;3.45;;
25549;SDS011;13444;50.562;7.262;2023-04-05T14:03:29;4.18;;;3.10;;
25549;SDS011;13444;50.562;7.262;2023-04-05T14:05:55;6.78;;;3.75;;
25549;SDS011;13444;50.562;7.262;2023-04-05T14:08:21;4.07;;;3.33;;
25549;SDS011;13444;50.562;7.262;2023-04-05T14:10:46;6.88;;;3.22;;
25549;SDS011;13444;50.562;7.262;2023-04-05T14:13:12;5.13;;;3.38;;
25549;SDS011;13444;50.562;7.262;2023-04-05T14:15:40;4.15;;;3.35;;
25549;SDS011;13444;50.562;7.262;2023-04-05T14:18:06;4.32;;;2.85;;
25549;SDS011;13444;50.562;7.262;2023-04-05T14:20:32;4.03;;;3.00;;
25549;SDS011;13444;50.562;7.262;2023-04-05T14:22:58;5.38;;;3.55;;
25549;SDS011;13444;50.562;7.262;2023-04-05T14:25:25;5.18;;;3.40;;
25549;SDS011;13444;50.562;7.262;2023-04-05T14:27:50;5.13;;;4.10;;
25549;SDS011;13444;50.562;7.262;2023-04-05T14:30:16;5.78;;;3.88;;
25549;SDS011;13444;50.562;7.262;2023-04-05T14:32:41;3.88;;;2.97;;
25549;SDS011;13444;50.562;7.262;2023-04-05T14:35:09;7.57;;;4.03;;
25549;SDS011;13444;50.562;7.262;2023-04-05T14:37:34;5.47;;;3.72;;
25549;SDS011;13444;50.562;7.262;2023-04-05T14:40:00;4.95;;;3.83;;
25549;SDS011;13444;50.562;7.262;2023-04-05T14:42:26;5.68;;;3.85;;
25549;SDS011;13444;50.562;7.262;2023-04-05T14:44:51;5.07;;;3.40;;
25549;SDS011;13444;50.562;7.262;2023-04-05T14:47:17;7.97;;;3.13;;
25549;SDS011;13444;50.562;7.262;2023-04-05T14:49:42;3.78;;;2.90;;
25549;SDS011;13444;50.562;7.262;2023-04-05T14:52:08;9.00;;;3.65;;
25549;SDS011;13444;50.562;7.262;2023-04-05T14:54:33;5.35;;;3.38;;
25549;SDS011;13444;50.562;7.262;2023-04-05T14:56:59;7.30;;;3.72;;
25549;SDS011;13444;50.562;7.262;2023-04-05T14:59:25;6.90;;;2.80;;
25549;SDS011;13444;50.562;7.262;2023-04-05T15:01:50;6.47;;;3.08;;
25549;SDS011;13444;50.562;7.262;2023-04-05T15:04:16;4.90;;;3.22;;
25549;SDS011;13444;50.562;7.262;2023-04-05T15:06:42;5.60;;;3.60;;
25549;SDS011;13444;50.562;7.262;2023-04-05T15:09:07;7.72;;;2.45;;
25549;SDS011;13444;50.562;7.262;2023-04-05T15:11:35;4.68;;;3.08;;
25549;SDS011;13444;50.562;7.262;2023-04-05T15:14:03;5.22;;;2.60;;
25549;SDS011;13444;50.562;7.262;2023-04-05T15:16:28;3.53;;;2.30;;
25549;SDS011;13444;50.562;7.262;2023-04-05T15:18:54;5.15;;;3.20;;
25549;SDS011;13444;50.562;7.262;2023-04-05T15:21:20;4.25;;;2.70;;